sensor_id;sensor_type;location;lat;lon;timestamp;pressure;altitude;pressure_sealevel;temperature;humidity
3082;BME280;1551;51.046;7.010;2023-07-28T00:01:34;99933.91;;;18.85;100.00
3082;BME280;1551;51.046;7.010;2023-07-28T00:04:23;99944.34;;;18.99;100.00
3082;BME280;1551;51.046;7.010;2023-07-28T00:07:12;99932.63;;;18.92;100.00
3082;BME280;1551;51.046;7.010;2023-07-28T00:10:02;99943.19;;;18.89;100.00
3082;BME280;1551;51.046;7.010;2023-07-28T00:12:51;99948.38;;;18.89;100.00
3082;BME280;1551;51.046;7.010;2023-07-28T00:15:39;99937.00;;;18.92;100.00
3082;BME280;1551;51.046;7.010;2023-07-28T00:18:28;99933.16;;;18.99;100.00
3082;BME280;1551;51.046;7.010;2023-07-28T00:21:17;99934.84;;;18.84;100.00
3082;BME280;1551;51.046;7.010;2023-07-28T00:24:06;99944.00;;;18.90;100.00
3082;BME280;1551;51.046;7.010;2023-07-28T00:26:55;99939.94;;;18.86;100.00
3082;BME280;1551;51.046;7.010;2023-07-28T00:29:44;99934.56;;;18.89;100.00
3082;BME280;1551;51.046;7.010;2023-07-28T00:32:33;99938.56;;;18.94;100.00
3082;BME280;1551;51.046;7.010;2023-07-28T00:35:22;99940.25;;;18.95;100.00
3082;BME280;1551;51.046;7.010;2023-07-28T00:38:12;99932.38;;;18.97;100.00
3082;BME280;1551;51.046;7.010;2023-07-28T00:41:00;99935.53;;;19.02;100.00
3082;BME280;1551;51.046;7.010;2023-07-28T00:43:50;99938.06;;;19.03;100.00
3082;BME280;1551;51.046;7.010;2023-07-28T00:46:39;99935.75;;;18.99;100.00
3082;BME280;1551;51.046;7.010;2023-07-28T00:49:28;99928.59;;;19.02;100.00
3082;BME280;1551;51.046;7.010;2023-07-28T00:52:17;99926.13;;;19.01;100.00
3082;BME280;1551;51.046;7.010;2023-07-28T00:55:06;99935.47;;;19.03;100.00
3082;BME280;1551;51.046;7.010;2023-07-28T00:57:56;99940.66;;;19.03;100.00
3082;BME280;1551;51.046;7.010;2023-07-28T01:00:45;99937.06;;;18.90;100.00
3082;BME280;1551;51.046;7.010;2023-07-28T01:03:34;99934.41;;;18.92;100.00
3082;BME280;1551;51.046;7.010;2023-07-28T01:06:27;99929.13;;;18.93;100.00
3082;BME280;1551;51.046;7.010;2023-07-28T01:09:21;99928.81;;;19.13;100.00
3082;BME280;1551;51.046;7.010;2023-07-28T01:12:12;99934.75;;;19.15;100.00
3082;BME280;1551;51.046;7.010;2023-07-28T01:15:01;99930.59;;;19.13;100.00
3082;BME280;1551;51.046;7.010;2023-07-28T01:17:50;99934.28;;;19.09;100.00
3082;BME280;1551;51.046;7.010;2023-07-28T01:20:40;99928.88;;;19.28;100.00
3082;BME280;1551;51.046;7.010;2023-07-28T01:23:52;99929.13;;;19.39;99.82
3082;BME280;1551;51.046;7.010;2023-07-28T01:26:45;99930.19;;;19.35;99.69
3082;BME280;1551;51.046;7.010;2023-07-28T01:29:35;99935.47;;;19.33;98.83
3082;BME280;1551;51.046;7.010;2023-07-28T01:32:25;99925.78;;;19.21;98.88
3082;BME280;1551;51.046;7.010;2023-07-28T01:35:13;99924.22;;;19.18;99.40
3082;BME280;1551;51.046;7.010;2023-07-28T01:38:02;99923.56;;;19.15;99.26
3082;BME280;1551;51.046;7.010;2023-07-28T01:40:51;99918.44;;;19.13;99.71
3082;BME280;1551;51.046;7.010;2023-07-28T01:43:40;99922.72;;;19.14;99.63
3082;BME280;1551;51.046;7.010;2023-07-28T01:46:30;99929.66;;;19.14;99.79
3082;BME280;1551;51.046;7.010;2023-07-28T01:49:19;99923.84;;;19.10;99.66
3082;BME280;1551;51.046;7.010;2023-07-28T01:52:08;99919.91;;;19.03;99.92
3082;BME280;1551;51.046;7.010;2023-07-28T01:54:57;99923.69;;;18.98;100.00
3082;BME280;1551;51.046;7.010;2023-07-28T01:57:58;99919.78;;;18.91;100.00
3082;BME280;1551;51.046;7.010;2023-07-28T02:00:47;99915.09;;;18.82;100.00
3082;BME280;1551;51.046;7.010;2023-07-28T02:03:36;99915.84;;;18.84;100.00
3082;BME280;1551;51.046;7.010;2023-07-28T02:06:25;99918.22;;;18.73;100.00
3082;BME280;1551;51.046;7.010;2023-07-28T02:09:15;99910.00;;;18.65;100.00
3082;BME280;1551;51.046;7.010;2023-07-28T02:12:06;99912.75;;;18.62;100.00
3082;BME280;1551;51.046;7.010;2023-07-28T02:14:55;99911.13;;;18.61;100.00
3082;BME280;1551;51.046;7.010;2023-07-28T02:17:44;99896.81;;;18.53;100.00
3082;BME280;1551;51.046;7.010;2023-07-28T02:20:33;99900.66;;;18.62;100.00
3082;BME280;1551;51.046;7.010;2023-07-28T02:23:24;99916.00;;;18.81;100.00
3082;BME280;1551;51.046;7.010;2023-07-28T02:26:13;99910.25;;;18.91;100.00
3082;BME280;1551;51.046;7.010;2023-07-28T02:29:02;99911.88;;;18.92;100.00
3082;BME280;1551;51.046;7.010;2023-07-28T02:31:51;99922.53;;;18.88;100.00
3082;BME280;1551;51.046;7.010;2023-07-28T02:34:40;99914.09;;;18.84;100.00
3082;BME280;1551;51.046;7.010;2023-07-28T02:37:29;99917.75;;;18.80;100.00
3082;BME280;1551;51.046;7.010;2023-07-28T02:40:18;99929.66;;;18.84;100.00
3082;BME280;1551;51.046;7.010;2023-07-28T02:43:07;99920.94;;;18.85;100.00
3082;BME280;1551;51.046;7.010;2023-07-28T02:45:57;99919.66;;;18.92;100.00
3082;BME280;1551;51.046;7.010;2023-07-28T02:48:46;99920.94;;;18.85;100.00
3082;BME280;1551;51.046;7.010;2023-07-28T02:51:35;99920.28;;;18.82;100.00
3082;BME280;1551;51.046;7.010;2023-07-28T02:54:24;99931.66;;;18.79;100.00
3082;BME280;1551;51.046;7.010;2023-07-28T02:57:15;99914.34;;;18.80;100.00
3082;BME280;1551;51.046;7.010;2023-07-28T03:00:06;99927.22;;;18.81;100.00
3082;BME280;1551;51.046;7.010;2023-07-28T03:02:59;99929.56;;;18.86;100.00
3082;BME280;1551;51.046;7.010;2023-07-28T03:05:51;99929.81;;;18.81;100.00
3082;BME280;1551;51.046;7.010;2023-07-28T03:08:47;99926.38;;;18.81;100.00
3082;BME280;1551;51.046;7.010;2023-07-28T03:11:56;99933.56;;;18.76;100.00
3082;BME280;1551;51.046;7.010;2023-07-28T03:14:45;99918.28;;;18.71;100.00
3082;BME280;1551;51.046;7.010;2023-07-28T03:17:34;99931.81;;;18.76;100.00
3082;BME280;1551;51.046;7.010;2023-07-28T03:20:23;99927.31;;;18.80;100.00
3082;BME280;1551;51.046;7.010;2023-07-28T03:23:13;99929.97;;;18.78;100.00
3082;BME280;1551;51.046;7.010;2023-07-28T03:26:03;99928.97;;;18.81;100.00
3082;BME280;1551;51.046;7.010;2023-07-28T03:28:52;99910.09;;;18.63;100.00
3082;BME280;1551;51.046;7.010;2023-07-28T03:31:41;99908.91;;;18.69;100.00
3082;BME280;1551;51.046;7.010;2023-07-28T03:34:30;99927.38;;;18.78;100.00
3082;BME280;1551;51.046;7.010;2023-07-28T03:37:21;99934.50;;;18.75;100.00
3082;BME280;1551;51.046;7.010;2023-07-28T03:40:10;99907.94;;;18.56;100.00
3082;BME280;1551;51.046;7.010;2023-07-28T03:43:10;99932.00;;;18.73;100.00
3082;BME280;1551;51.046;7.010;2023-07-28T03:45:59;99935.41;;;18.74;100.00
3082;BME280;1551;51.046;7.010;2023-07-28T03:48:49;99939.28;;;18.82;100.00
3082;BME280;1551;51.046;7.010;2023-07-28T03:51:38;99924.41;;;18.70;100.00
3082;BME280;1551;51.046;7.010;2023-07-28T03:54:27;99939.34;;;18.81;100.00
3082;BME280;1551;51.046;7.010;2023-07-28T03:57:16;99942.88;;;18.80;100.00
3082;BME280;1551;51.046;7.010;2023-07-28T04:00:06;99939.69;;;18.75;100.00
3082;BME280;1551;51.046;7.010;2023-07-28T04:03:01;99936.44;;;18.71;100.00
3082;BME280;1551;51.046;7.010;2023-07-28T04:05:50;99931.91;;;18.75;100.00
3082;BME280;1551;51.046;7.010;2023-07-28T04:08:39;99929.34;;;18.75;100.00
3082;BME280;1551;51.046;7.010;2023-07-28T04:11:29;99921.56;;;18.75;100.00
3082;BME280;1551;51.046;7.010;2023-07-28T04:14:18;99930.72;;;18.80;100.00
3082;BME280;1551;51.046;7.010;2023-07-28T04:17:07;99934.47;;;18.90;100.00
3082;BME280;1551;51.046;7.010;2023-07-28T04:19:56;99939.41;;;18.95;100.00
3082;BME280;1551;51.046;7.010;2023-07-28T04:22:46;99936.44;;;18.87;100.00
3082;BME280;1551;51.046;7.010;2023-07-28T04:25:35;99941.41;;;18.90;100.00
3082;BME280;1551;51.046;7.010;2023-07-28T04:28:24;99949.53;;;18.99;100.00
3082;BME280;1551;51.046;7.010;2023-07-28T04:31:14;99949.34;;;19.02;100.00
3082;BME280;1551;51.046;7.010;2023-07-28T04:34:15;99950.03;;;18.90;100.00
3082;BME280;1551;51.046;7.010;2023-07-28T04:37:23;99953.06;;;18.98;100.00
3082;BME280;1551;51.046;7.010;2023-07-28T04:40:22;99956.22;;;19.03;100.00
3082;BME280;1551;51.046;7.010;2023-07-28T04:43:11;99956.28;;;19.02;100.00
3082;BME280;1551;51.046;7.010;2023-07-28T04:46:00;99951.31;;;18.99;100.00
3082;BME280;1551;51.046;7.010;2023-07-28T04:48:49;99955.28;;;19.04;100.00
3082;BME280;1551;51.046;7.010;2023-07-28T04:51:57;99951.38;;;19.13;100.00
3082;BME280;1551;51.046;7.010;2023-07-28T04:55:02;99958.03;;;19.17;100.00
3082;BME280;1551;51.046;7.010;2023-07-28T04:57:51;99966.25;;;19.09;100.00
3082;BME280;1551;51.046;7.010;2023-07-28T05:00:42;99968.75;;;19.11;100.00
3082;BME280;1551;51.046;7.010;2023-07-28T05:03:33;99964.06;;;19.17;100.00
3082;BME280;1551;51.046;7.010;2023-07-28T05:06:36;99968.91;;;19.23;100.00
3082;BME280;1551;51.046;7.010;2023-07-28T05:09:25;99966.88;;;19.29;100.00
3082;BME280;1551;51.046;7.010;2023-07-28T05:12:17;99976.16;;;19.33;100.00
3082;BME280;1551;51.046;7.010;2023-07-28T05:15:09;99969.09;;;19.35;100.00
3082;BME280;1551;51.046;7.010;2023-07-28T05:18:02;99981.69;;;19.42;100.00
3082;BME280;1551;51.046;7.010;2023-07-28T05:21:17;99969.94;;;19.35;100.00
3082;BME280;1551;51.046;7.010;2023-07-28T05:24:06;99978.19;;;19.43;100.00
3082;BME280;1551;51.046;7.010;2023-07-28T05:26:57;99977.91;;;19.48;100.00
3082;BME280;1551;51.046;7.010;2023-07-28T05:29:46;99982.91;;;19.51;100.00
3082;BME280;1551;51.046;7.010;2023-07-28T05:32:35;99970.72;;;19.37;100.00
3082;BME280;1551;51.046;7.010;2023-07-28T05:35:41;99983.38;;;19.43;100.00
3082;BME280;1551;51.046;7.010;2023-07-28T05:38:30;99989.78;;;19.52;100.00
3082;BME280;1551;51.046;7.010;2023-07-28T05:41:19;99981.31;;;19.48;100.00
3082;BME280;1551;51.046;7.010;2023-07-28T05:44:09;99972.22;;;19.41;100.00
3082;BME280;1551;51.046;7.010;2023-07-28T05:46:59;99978.72;;;19.48;100.00
3082;BME280;1551;51.046;7.010;2023-07-28T05:49:48;99996.94;;;19.62;100.00
3082;BME280;1551;51.046;7.010;2023-07-28T05:52:37;99956.47;;;19.44;100.00
3082;BME280;1551;51.046;7.010;2023-07-28T05:55:26;99997.59;;;19.66;100.00
3082;BME280;1551;51.046;7.010;2023-07-28T05:58:14;99969.84;;;19.52;100.00
3082;BME280;1551;51.046;7.010;2023-07-28T06:01:03;99988.06;;;19.66;100.00
3082;BME280;1551;51.046;7.010;2023-07-28T06:04:13;100012.53;;;19.76;100.00
3082;BME280;1551;51.046;7.010;2023-07-28T06:07:09;100008.47;;;19.72;100.00
3082;BME280;1551;51.046;7.010;2023-07-28T06:09:59;100012.00;;;19.71;100.00
3082;BME280;1551;51.046;7.010;2023-07-28T06:12:48;100009.03;;;19.77;100.00
3082;BME280;1551;51.046;7.010;2023-07-28T06:15:39;100006.53;;;19.76;100.00
3082;BME280;1551;51.046;7.010;2023-07-28T06:18:28;100016.09;;;19.89;100.00
3082;BME280;1551;51.046;7.010;2023-07-28T06:21:38;100006.53;;;19.76;100.00
3082;BME280;1551;51.046;7.010;2023-07-28T06:24:27;100018.69;;;19.75;100.00
3082;BME280;1551;51.046;7.010;2023-07-28T06:27:16;99988.03;;;19.52;100.00
3082;BME280;1551;51.046;7.010;2023-07-28T06:30:05;100020.31;;;19.76;100.00
3082;BME280;1551;51.046;7.010;2023-07-28T06:32:55;100024.72;;;19.76;100.00
3082;BME280;1551;51.046;7.010;2023-07-28T06:35:44;100021.75;;;19.82;100.00
3082;BME280;1551;51.046;7.010;2023-07-28T06:38:33;100041.34;;;19.87;100.00
3082;BME280;1551;51.046;7.010;2023-07-28T06:41:23;100041.34;;;19.87;100.00
3082;BME280;1551;51.046;7.010;2023-07-28T06:44:18;100043.47;;;19.81;100.00
3082;BME280;1551;51.046;7.010;2023-07-28T06:47:08;100043.00;;;19.88;100.00
3082;BME280;1551;51.046;7.010;2023-07-28T06:49:57;100047.91;;;19.93;100.00
3082;BME280;1551;51.046;7.010;2023-07-28T06:52:46;100045.59;;;19.88;100.00
3082;BME280;1551;51.046;7.010;2023-07-28T06:55:37;100053.88;;;19.95;100.00
3082;BME280;1551;51.046;7.010;2023-07-28T06:58:28;100051.00;;;20.00;100.00
3082;BME280;1551;51.046;7.010;2023-07-28T07:01:17;100053.63;;;20.00;100.00
3082;BME280;1551;51.046;7.010;2023-07-28T07:04:07;100054.63;;;19.97;100.00
3082;BME280;1551;51.046;7.010;2023-07-28T07:06:56;100062.31;;;19.99;100.00
3082;BME280;1551;51.046;7.010;2023-07-28T07:09:45;100053.88;;;19.95;100.00
3082;BME280;1551;51.046;7.010;2023-07-28T07:12:35;100075.44;;;20.11;100.00
3082;BME280;1551;51.046;7.010;2023-07-28T07:15:24;100073.66;;;20.12;100.00
3082;BME280;1551;51.046;7.010;2023-07-28T07:18:13;100067.13;;;20.05;100.00
3082;BME280;1551;51.046;7.010;2023-07-28T07:21:02;100074.75;;;20.08;100.00
3082;BME280;1551;51.046;7.010;2023-07-28T07:23:52;100078.50;;;20.18;100.00
3082;BME280;1551;51.046;7.010;2023-07-28T07:26:48;100061.50;;;20.12;100.00
3082;BME280;1551;51.046;7.010;2023-07-28T07:29:40;100084.44;;;20.20;100.00
3082;BME280;1551;51.046;7.010;2023-07-28T07:32:29;100076.53;;;20.21;100.00
3082;BME280;1551;51.046;7.010;2023-07-28T07:35:18;100077.09;;;20.12;100.00
3082;BME280;1551;51.046;7.010;2023-07-28T07:38:07;100085.84;;;20.11;100.00
3082;BME280;1551;51.046;7.010;2023-07-28T07:40:58;100091.66;;;20.15;100.00
3082;BME280;1551;51.046;7.010;2023-07-28T07:43:47;100086.47;;;20.15;100.00
3082;BME280;1551;51.046;7.010;2023-07-28T07:46:36;100093.56;;;20.27;100.00
3082;BME280;1551;51.046;7.010;2023-07-28T07:49:26;100097.09;;;20.26;100.00
3082;BME280;1551;51.046;7.010;2023-07-28T07:52:15;100097.94;;;20.40;100.00
3082;BME280;1551;51.046;7.010;2023-07-28T07:55:04;100106.69;;;20.53;100.00
3082;BME280;1551;51.046;7.010;2023-07-28T07:57:53;100104.38;;;20.49;100.00
3082;BME280;1551;51.046;7.010;2023-07-28T08:00:42;100103.91;;;20.56;100.00
3082;BME280;1551;51.046;7.010;2023-07-28T08:03:33;100102.59;;;20.49;100.00
3082;BME280;1551;51.046;7.010;2023-07-28T08:06:21;100109.66;;;20.62;100.00
3082;BME280;1551;51.046;7.010;2023-07-28T08:09:10;100107.00;;;20.63;100.00
3082;BME280;1551;51.046;7.010;2023-07-28T08:12:00;100113.66;;;20.67;100.00
3082;BME280;1551;51.046;7.010;2023-07-28T08:14:49;100118.88;;;20.67;99.81
3082;BME280;1551;51.046;7.010;2023-07-28T08:17:37;100118.13;;;20.65;100.00
3082;BME280;1551;51.046;7.010;2023-07-28T08:20:27;100128.03;;;20.73;99.94
3082;BME280;1551;51.046;7.010;2023-07-28T08:23:16;100124.41;;;20.61;99.08
3082;BME280;1551;51.046;7.010;2023-07-28T08:26:06;100129.06;;;20.70;99.61
3082;BME280;1551;51.046;7.010;2023-07-28T08:28:55;100134.47;;;20.81;99.09
3082;BME280;1551;51.046;7.010;2023-07-28T08:31:44;100133.53;;;20.82;99.51
3082;BME280;1551;51.046;7.010;2023-07-28T08:34:32;100136.63;;;20.89;98.20
3082;BME280;1551;51.046;7.010;2023-07-28T08:37:21;100134.25;;;20.84;98.41
3082;BME280;1551;51.046;7.010;2023-07-28T08:40:11;100134.00;;;21.03;98.19
3082;BME280;1551;51.046;7.010;2023-07-28T08:43:00;100124.50;;;21.16;97.78
3082;BME280;1551;51.046;7.010;2023-07-28T08:45:51;100124.41;;;21.17;97.46
3082;BME280;1551;51.046;7.010;2023-07-28T08:48:42;100135.47;;;21.21;97.38
3082;BME280;1551;51.046;7.010;2023-07-28T08:51:32;100128.13;;;21.13;97.30
3082;BME280;1551;51.046;7.010;2023-07-28T08:54:21;100139.06;;;21.33;96.36
3082;BME280;1551;51.046;7.010;2023-07-28T08:57:10;100135.16;;;21.40;96.14
3082;BME280;1551;51.046;7.010;2023-07-28T09:03:03;100144.31;;;21.86;94.29
3082;BME280;1551;51.046;7.010;2023-07-28T09:05:52;100143.03;;;22.18;92.66
3082;BME280;1551;51.046;7.010;2023-07-28T09:08:43;100142.84;;;22.46;90.86
3082;BME280;1551;51.046;7.010;2023-07-28T09:11:32;100094.53;;;22.28;89.80
3082;BME280;1551;51.046;7.010;2023-07-28T09:14:21;100138.16;;;22.77;89.10
3082;BME280;1551;51.046;7.010;2023-07-28T09:17:12;100129.66;;;23.11;87.26
3082;BME280;1551;51.046;7.010;2023-07-28T09:20:02;100137.69;;;23.57;86.01
3082;BME280;1551;51.046;7.010;2023-07-28T09:22:53;100137.84;;;23.90;84.17
3082;BME280;1551;51.046;7.010;2023-07-28T09:25:42;100133.78;;;23.86;83.41
3082;BME280;1551;51.046;7.010;2023-07-28T09:28:38;100126.34;;;23.69;82.69
3082;BME280;1551;51.046;7.010;2023-07-28T09:31:30;100139.03;;;23.62;82.60
3082;BME280;1551;51.046;7.010;2023-07-28T09:34:27;100144.94;;;23.53;82.52
3082;BME280;1551;51.046;7.010;2023-07-28T09:37:17;100147.19;;;23.21;82.81
3082;BME280;1551;51.046;7.010;2023-07-28T09:40:09;100144.75;;;22.95;83.54
3082;BME280;1551;51.046;7.010;2023-07-28T09:43:01;100139.31;;;22.73;84.89
3082;BME280;1551;51.046;7.010;2023-07-28T09:45:50;100135.88;;;22.72;85.10
3082;BME280;1551;51.046;7.010;2023-07-28T09:48:45;100139.66;;;22.81;84.87
3082;BME280;1551;51.046;7.010;2023-07-28T09:51:35;100138.16;;;22.77;84.84
3082;BME280;1551;51.046;7.010;2023-07-28T09:54:29;100140.16;;;22.73;85.02
3082;BME280;1551;51.046;7.010;2023-07-28T09:57:20;100139.44;;;22.71;85.13
3082;BME280;1551;51.046;7.010;2023-07-28T10:00:11;100139.53;;;22.70;84.71
3082;BME280;1551;51.046;7.010;2023-07-28T10:03:02;100131.47;;;22.60;84.55
3082;BME280;1551;51.046;7.010;2023-07-28T10:05:51;100143.91;;;22.56;84.67
3082;BME280;1551;51.046;7.010;2023-07-28T10:08:42;100140.38;;;22.57;84.70
3082;BME280;1551;51.046;7.010;2023-07-28T10:11:32;100139.97;;;22.76;84.54
3082;BME280;1551;51.046;7.010;2023-07-28T10:14:31;100147.94;;;23.11;83.79
3082;BME280;1551;51.046;7.010;2023-07-28T10:17:30;100143.59;;;23.35;83.14
3082;BME280;1551;51.046;7.010;2023-07-28T10:20:36;100140.47;;;23.66;81.99
3082;BME280;1551;51.046;7.010;2023-07-28T10:23:27;100138.19;;;23.85;81.59
3082;BME280;1551;51.046;7.010;2023-07-28T10:26:31;100139.53;;;23.91;80.58
3082;BME280;1551;51.046;7.010;2023-07-28T10:29:20;100138.47;;;23.93;80.45
3082;BME280;1551;51.046;7.010;2023-07-28T10:32:09;100147.91;;;23.83;80.72
3082;BME280;1551;51.046;7.010;2023-07-28T10:38:27;100143.69;;;23.34;78.92
3082;BME280;1551;51.046;7.010;2023-07-28T10:41:17;100151.34;;;23.24;79.81
3082;BME280;1551;51.046;7.010;2023-07-28T10:44:07;100154.03;;;22.99;81.52
3082;BME280;1551;51.046;7.010;2023-07-28T10:46:56;100166.88;;;22.77;82.88
3082;BME280;1551;51.046;7.010;2023-07-28T10:49:47;100174.00;;;22.62;85.11
3082;BME280;1551;51.046;7.010;2023-07-28T10:52:43;100163.94;;;22.43;85.39
3082;BME280;1551;51.046;7.010;2023-07-28T10:55:34;100185.22;;;22.50;85.46
3082;BME280;1551;51.046;7.010;2023-07-28T10:58:23;100159.91;;;22.65;85.71
3082;BME280;1551;51.046;7.010;2023-07-28T11:01:14;100183.09;;;23.43;84.95
3082;BME280;1551;51.046;7.010;2023-07-28T11:04:12;100175.13;;;24.39;83.38
3082;BME280;1551;51.046;7.010;2023-07-28T11:07:02;100175.38;;;25.69;77.41
3082;BME280;1551;51.046;7.010;2023-07-28T11:09:51;100163.84;;;25.27;78.07
3082;BME280;1551;51.046;7.010;2023-07-28T11:13:01;100166.88;;;25.01;77.59
3082;BME280;1551;51.046;7.010;2023-07-28T11:15:51;100171.03;;;24.92;77.71
3082;BME280;1551;51.046;7.010;2023-07-28T11:18:40;100160.97;;;24.64;76.90
3082;BME280;1551;51.046;7.010;2023-07-28T11:21:29;100164.66;;;24.50;77.47
3082;BME280;1551;51.046;7.010;2023-07-28T11:24:20;100150.13;;;24.35;77.70
3082;BME280;1551;51.046;7.010;2023-07-28T11:27:09;100156.72;;;24.52;78.10
3082;BME280;1551;51.046;7.010;2023-07-28T11:29:58;100161.66;;;24.90;78.87
3082;BME280;1551;51.046;7.010;2023-07-28T11:32:49;100159.63;;;26.33;75.09
3082;BME280;1551;51.046;7.010;2023-07-28T11:35:38;100155.75;;;25.84;73.43
3082;BME280;1551;51.046;7.010;2023-07-28T11:38:29;100151.38;;;25.20;75.44
3082;BME280;1551;51.046;7.010;2023-07-28T11:41:19;100149.75;;;24.97;76.80
3082;BME280;1551;51.046;7.010;2023-07-28T11:44:09;100147.69;;;25.22;76.68
3082;BME280;1551;51.046;7.010;2023-07-28T11:46:58;100149.59;;;25.32;75.78
3082;BME280;1551;51.046;7.010;2023-07-28T11:49:50;100142.38;;;25.67;74.76
3082;BME280;1551;51.046;7.010;2023-07-28T11:52:42;100154.56;;;26.20;75.73
3082;BME280;1551;51.046;7.010;2023-07-28T11:55:32;100149.41;;;26.81;71.49
3082;BME280;1551;51.046;7.010;2023-07-28T11:58:21;100141.50;;;26.30;71.68
3082;BME280;1551;51.046;7.010;2023-07-28T12:01:13;100148.09;;;26.24;72.25
3082;BME280;1551;51.046;7.010;2023-07-28T12:04:25;100147.13;;;26.46;70.88
3082;BME280;1551;51.046;7.010;2023-07-28T12:07:16;100149.72;;;26.05;69.29
3082;BME280;1551;51.046;7.010;2023-07-28T12:10:06;100137.38;;;25.64;70.47
3082;BME280;1551;51.046;7.010;2023-07-28T12:12:58;100139.53;;;25.59;71.30
3082;BME280;1551;51.046;7.010;2023-07-28T12:15:52;100138.59;;;25.49;71.97
3082;BME280;1551;51.046;7.010;2023-07-28T12:18:41;100135.97;;;25.38;72.62
3082;BME280;1551;51.046;7.010;2023-07-28T12:21:30;100139.84;;;25.11;72.61
3082;BME280;1551;51.046;7.010;2023-07-28T12:24:20;100143.69;;;24.96;72.48
3082;BME280;1551;51.046;7.010;2023-07-28T12:27:10;100143.31;;;24.90;72.86
3082;BME280;1551;51.046;7.010;2023-07-28T12:30:00;100131.97;;;24.67;73.31
3082;BME280;1551;51.046;7.010;2023-07-28T12:32:50;100124.34;;;24.64;72.59
3082;BME280;1551;51.046;7.010;2023-07-28T12:35:39;100129.97;;;24.71;72.44
3082;BME280;1551;51.046;7.010;2023-07-28T12:38:28;100136.03;;;25.04;72.12
3082;BME280;1551;51.046;7.010;2023-07-28T12:41:17;100136.66;;;24.97;72.01
3082;BME280;1551;51.046;7.010;2023-07-28T12:44:06;100141.84;;;24.64;71.22
3082;BME280;1551;51.046;7.010;2023-07-28T12:46:55;100141.94;;;24.51;70.72
3082;BME280;1551;51.046;7.010;2023-07-28T12:49:44;100140.88;;;24.42;71.18
3082;BME280;1551;51.046;7.010;2023-07-28T12:52:33;100140.97;;;24.41;71.61
3082;BME280;1551;51.046;7.010;2023-07-28T12:55:21;100146.47;;;24.49;71.91
3082;BME280;1551;51.046;7.010;2023-07-28T12:58:10;100153.75;;;24.56;70.86
3082;BME280;1551;51.046;7.010;2023-07-28T13:00:59;100145.41;;;24.63;70.58
3082;BME280;1551;51.046;7.010;2023-07-28T13:03:50;100149.38;;;24.79;70.46
3082;BME280;1551;51.046;7.010;2023-07-28T13:06:39;100156.94;;;24.71;70.55
3082;BME280;1551;51.046;7.010;2023-07-28T13:09:29;100160.06;;;24.76;70.79
3082;BME280;1551;51.046;7.010;2023-07-28T13:12:18;100157.31;;;24.67;71.21
3082;BME280;1551;51.046;7.010;2023-07-28T13:15:07;100153.63;;;24.58;72.37
3082;BME280;1551;51.046;7.010;2023-07-28T13:17:56;100163.72;;;24.63;72.97
3082;BME280;1551;51.046;7.010;2023-07-28T13:20:45;100156.59;;;24.65;73.16
3082;BME280;1551;51.046;7.010;2023-07-28T13:23:34;100163.59;;;24.53;73.39
3082;BME280;1551;51.046;7.010;2023-07-28T13:26:23;100164.16;;;24.45;73.42
3082;BME280;1551;51.046;7.010;2023-07-28T13:29:14;100162.66;;;24.54;73.62
3082;BME280;1551;51.046;7.010;2023-07-28T13:32:03;100158.84;;;24.69;73.69
3082;BME280;1551;51.046;7.010;2023-07-28T13:34:52;100159.00;;;24.79;73.41
3082;BME280;1551;51.046;7.010;2023-07-28T13:37:42;100157.09;;;24.81;72.64
3082;BME280;1551;51.046;7.010;2023-07-28T13:40:31;100159.13;;;24.88;72.44
3082;BME280;1551;51.046;7.010;2023-07-28T13:43:19;100154.75;;;25.11;73.01
3082;BME280;1551;51.046;7.010;2023-07-28T13:46:08;100153.91;;;25.10;72.66
3082;BME280;1551;51.046;7.010;2023-07-28T13:48:57;100147.19;;;25.28;72.36
3082;BME280;1551;51.046;7.010;2023-07-28T13:51:46;100155.56;;;25.22;71.76
3082;BME280;1551;51.046;7.010;2023-07-28T13:54:35;100146.84;;;25.44;71.93
3082;BME280;1551;51.046;7.010;2023-07-28T13:57:24;100140.84;;;25.53;72.42
3082;BME280;1551;51.046;7.010;2023-07-28T14:00:13;100148.88;;;25.72;72.66
3082;BME280;1551;51.046;7.010;2023-07-28T14:03:02;100155.28;;;25.79;72.06
3082;BME280;1551;51.046;7.010;2023-07-28T14:05:52;100151.19;;;25.66;72.02
3082;BME280;1551;51.046;7.010;2023-07-28T14:08:41;100139.16;;;25.63;70.81
3082;BME280;1551;51.046;7.010;2023-07-28T14:11:29;100138.84;;;25.35;71.72
3082;BME280;1551;51.046;7.010;2023-07-28T14:14:18;100140.03;;;25.31;72.14
3082;BME280;1551;51.046;7.010;2023-07-28T14:17:07;100142.06;;;25.49;71.89
3082;BME280;1551;51.046;7.010;2023-07-28T14:19:56;100144.81;;;25.25;71.11
3082;BME280;1551;51.046;7.010;2023-07-28T14:22:45;100139.63;;;25.03;71.44
3082;BME280;1551;51.046;7.010;2023-07-28T14:25:34;100133.56;;;24.92;72.29
3082;BME280;1551;51.046;7.010;2023-07-28T14:28:23;100131.66;;;24.94;72.61
3082;BME280;1551;51.046;7.010;2023-07-28T14:31:12;100143.66;;;24.85;74.19
3082;BME280;1551;51.046;7.010;2023-07-28T14:34:01;100142.22;;;24.81;74.19
3082;BME280;1551;51.046;7.010;2023-07-28T14:36:50;100142.69;;;24.75;75.03
3082;BME280;1551;51.046;7.010;2023-07-28T14:39:39;100137.91;;;24.47;75.68
3082;BME280;1551;51.046;7.010;2023-07-28T14:42:28;100135.13;;;24.26;76.33
3082;BME280;1551;51.046;7.010;2023-07-28T14:45:16;100145.50;;;24.04;77.94
3082;BME280;1551;51.046;7.010;2023-07-28T14:48:05;100148.16;;;23.91;78.49
3082;BME280;1551;51.046;7.010;2023-07-28T14:50:54;100158.88;;;23.88;79.40
3082;BME280;1551;51.046;7.010;2023-07-28T14:53:43;100150.25;;;23.75;79.76
3082;BME280;1551;51.046;7.010;2023-07-28T14:56:35;100152.34;;;23.70;79.89
3082;BME280;1551;51.046;7.010;2023-07-28T14:59:24;100152.47;;;23.69;79.72
3082;BME280;1551;51.046;7.010;2023-07-28T15:02:12;100156.88;;;23.68;79.90
3082;BME280;1551;51.046;7.010;2023-07-28T15:05:02;100160.16;;;23.83;80.40
3082;BME280;1551;51.046;7.010;2023-07-28T15:07:51;100165.41;;;23.94;80.30
3082;BME280;1551;51.046;7.010;2023-07-28T15:10:41;100129.09;;;23.67;80.03
3082;BME280;1551;51.046;7.010;2023-07-28T15:13:30;100157.03;;;23.78;81.03
3082;BME280;1551;51.046;7.010;2023-07-28T15:16:19;100152.63;;;23.55;81.57
3082;BME280;1551;51.046;7.010;2023-07-28T15:19:08;100161.66;;;23.51;82.30
3082;BME280;1551;51.046;7.010;2023-07-28T15:21:57;100167.41;;;23.31;83.47